Time;durP1;ratioP1;P1;durP2;ratioP2;P2;SDS_P1;SDS_P2;PMS_P1;PMS_P2;Temp;Humidity;BMP_temperature;BMP_pressure;BME280_temperature;BME280_humidity;BME280_pressure;Samples;Min_cycle;Max_cycle;Signal;HPM_P1;HPM_P2
2023/05/24 00:00:17;;;;;;;31.15;18.88;;;19.10;99.90;;;;;;5079385;28;20051;-77
2023/05/24 00:03:21;;;;;;;29.38;18.83;;;19.10;99.90;;;;;;5091875;28;20039;-78
2023/05/24 00:06:26;;;;;;;33.10;20.70;;;19.00;99.90;;;;;;5091629;28;20051;-78
2023/05/24 00:09:31;;;;;;;27.80;19.90;;;18.90;99.90;;;;;;5091505;28;20047;-78
2023/05/24 00:12:34;;;;;;;32.22;19.63;;;18.80;99.90;;;;;;5091604;28;20400;-77
2023/05/24 00:15:38;;;;;;;28.92;20.33;;;18.60;99.90;;;;;;5091568;28;20047;-77
2023/05/24 00:18:45;;;;;;;30.88;19.55;;;18.60;99.90;;;;;;5079087;28;20042;-77
2023/05/24 00:21:50;;;;;;;31.15;20.98;;;18.60;99.90;;;;;;5091561;28;20042;-78
2023/05/24 00:24:54;;;;;;;39.67;19.92;;;18.60;99.90;;;;;;5091310;28;20063;-77
2023/05/24 00:27:58;;;;;;;28.38;18.48;;;18.50;99.90;;;;;;5091385;28;20043;-77
2023/05/24 00:31:03;;;;;;;26.77;18.38;;;18.60;99.90;;;;;;5079156;28;20051;-78
2023/05/24 00:34:06;;;;;;;25.30;19.10;;;18.80;99.90;;;;;;5078715;28;20039;-77
2023/05/24 00:37:11;;;;;;;29.08;19.17;;;18.90;99.90;;;;;;5091328;28;20387;-77
2023/05/24 00:40:15;;;;;;;28.58;18.05;;;19.00;99.90;;;;;;5078658;28;20047;-77
2023/05/24 00:43:20;;;;;;;31.33;19.80;;;19.00;99.90;;;;;;5079028;28;20050;-77
2023/05/24 00:46:27;;;;;;;28.23;18.45;;;19.00;99.90;;;;;;5067370;28;20055;-78
2023/05/24 00:49:31;;;;;;;25.77;18.88;;;18.90;99.90;;;;;;5090889;28;20031;-77
2023/05/24 00:52:36;;;;;;;25.25;17.67;;;18.90;99.90;;;;;;5091413;28;20391;-77
2023/05/24 00:55:40;;;;;;;28.48;18.52;;;18.80;99.90;;;;;;5078546;28;20043;-77
2023/05/24 00:58:44;;;;;;;31.67;19.00;;;18.70;99.90;;;;;;5091175;28;20043;-77
2023/05/24 01:01:48;;;;;;;28.80;18.45;;;18.70;99.90;;;;;;5091022;28;20039;-78
2023/05/24 01:04:55;;;;;;;30.90;18.83;;;18.50;99.90;;;;;;5091008;28;20047;-77
2023/05/24 01:08:09;;;;;;;24.40;17.70;;;18.40;99.90;;;;;;5094423;28;20510;-77
2023/05/24 01:11:23;;;;;;;24.85;17.85;;;18.40;99.90;;;;;;5082712;28;20043;-78
2023/05/24 01:14:47;;;;;;;24.08;17.58;;;18.50;99.90;;;;;;5095319;28;20048;-76
2023/05/24 01:18:06;;;;;;;33.35;17.95;;;18.50;99.90;;;;;;5082551;28;20066;-77
2023/05/24 01:21:33;;;;;;;26.25;17.33;;;18.50;99.90;;;;;;5082531;28;20055;-77
2023/05/24 01:25:07;;;;;;;26.10;18.08;;;18.40;99.90;;;;;;5094672;28;20059;-77
2023/05/24 01:28:16;;;;;;;25.85;18.13;;;18.30;99.90;;;;;;5082393;28;20399;-76
2023/05/24 01:31:21;;;;;;;28.27;16.98;;;18.20;99.90;;;;;;5094511;28;20070;-77
2023/05/24 01:34:27;;;;;;;22.05;17.42;;;18.10;99.90;;;;;;5070809;28;20039;-77
2023/05/24 01:37:30;;;;;;;26.02;16.92;;;18.30;99.90;;;;;;5081813;28;20039;-77
2023/05/24 01:40:36;;;;;;;25.25;17.70;;;18.20;99.90;;;;;;5082453;28;20050;-77
2023/05/24 01:43:47;;;;;;;26.73;16.15;;;18.20;99.90;;;;;;5094542;28;20035;-77
2023/05/24 01:47:24;;;;;;;26.20;17.02;;;18.10;99.90;;;;;;5082109;28;20059;-77
2023/05/24 01:50:36;;;;;;;26.35;16.30;;;18.20;99.90;;;;;;5082087;28;20035;-78
2023/05/24 01:53:45;;;;;;;25.63;17.02;;;18.20;99.90;;;;;;5094529;28;20502;-77
2023/05/24 01:56:52;;;;;;;23.50;15.73;;;18.20;99.90;;;;;;5081864;28;20043;-76
2023/05/24 01:59:59;;;;;;;22.45;16.85;;;18.10;99.90;;;;;;5081532;28;20059;-77
2023/05/24 02:03:03;;;;;;;22.10;15.20;;;18.10;99.90;;;;;;5093433;28;20043;-77
2023/05/24 02:06:09;;;;;;;25.15;15.57;;;18.10;99.90;;;;;;5093948;28;20243;-77
2023/05/24 02:09:13;;;;;;;25.30;15.13;;;18.10;99.90;;;;;;5052799;28;20182;-78
2023/05/24 02:12:16;;;;;;;27.20;16.23;;;18.00;99.90;;;;;;5053109;28;20155;-77
2023/05/24 02:15:20;;;;;;;21.80;15.25;;;18.00;99.90;;;;;;5053871;28;20048;-77
2023/05/24 02:18:24;;;;;;;23.20;14.88;;;17.90;99.90;;;;;;5041232;28;20040;-77
2023/05/24 02:21:28;;;;;;;17.85;14.18;;;17.90;99.90;;;;;;5053768;28;20040;-78
2023/05/24 02:24:32;;;;;;;19.83;15.88;;;17.90;99.90;;;;;;5052797;28;20044;-76
2023/05/24 02:27:36;;;;;;;27.30;14.70;;;17.80;99.90;;;;;;5053345;28;20535;-76
2023/05/24 02:30:43;;;;;;;18.15;14.60;;;17.80;99.90;;;;;;5053469;28;20044;-77
2023/05/24 02:33:47;;;;;;;25.88;15.27;;;17.70;99.90;;;;;;5041190;28;20056;-77
2023/05/24 02:36:53;;;;;;;21.98;15.27;;;17.60;99.90;;;;;;5053492;28;20052;-77
2023/05/24 02:39:57;;;;;;;20.67;15.38;;;17.50;99.90;;;;;;5052099;28;20060;-76
2023/05/24 02:43:00;;;;;;;21.13;16.38;;;17.50;99.90;;;;;;5053113;28;20534;-77
2023/05/24 02:46:04;;;;;;;19.88;15.25;;;17.50;99.90;;;;;;5052187;28;20056;-78
2023/05/24 02:49:09;;;;;;;22.63;15.77;;;17.50;99.90;;;;;;5053076;28;20044;-76
2023/05/24 02:52:13;;;;;;;22.98;15.88;;;17.50;99.90;;;;;;5053133;28;20413;-77
2023/05/24 02:55:17;;;;;;;26.75;15.88;;;17.50;99.90;;;;;;5052199;28;20048;-77
2023/05/24 02:58:21;;;;;;;24.48;16.05;;;17.50;99.90;;;;;;5052765;28;20056;-76
2023/05/24 03:01:27;;;;;;;23.63;15.82;;;17.50;99.90;;;;;;5052147;28;20519;-77
2023/05/24 03:04:32;;;;;;;22.80;15.15;;;17.50;99.90;;;;;;5051646;28;20044;-77
2023/05/24 03:07:35;;;;;;;24.80;14.65;;;17.50;99.90;;;;;;5051463;28;20060;-77
2023/05/24 03:10:39;;;;;;;22.23;14.93;;;17.40;99.90;;;;;;5052911;28;20040;-77
2023/05/24 03:13:43;;;;;;;18.13;14.32;;;17.40;99.90;;;;;;5040298;28;20040;-77
2023/05/24 03:16:48;;;;;;;21.63;14.43;;;17.50;99.90;;;;;;5052028;28;20040;-77
2023/05/24 03:19:53;;;;;;;18.45;13.05;;;17.50;99.90;;;;;;5051959;28;20044;-77
2023/05/24 03:22:57;;;;;;;21.50;15.07;;;17.50;99.90;;;;;;5052102;28;20104;-76
2023/05/24 03:26:01;;;;;;;19.73;14.57;;;17.60;99.90;;;;;;5052939;28;20052;-77
2023/05/24 03:29:06;;;;;;;25.02;14.82;;;17.60;99.90;;;;;;5052278;28;20044;-77
2023/05/24 03:32:13;;;;;;;25.65;15.57;;;17.60;99.90;;;;;;5052056;28;20429;-77
2023/05/24 03:35:17;;;;;;;23.50;15.25;;;17.50;99.90;;;;;;5040544;28;20048;-77
2023/05/24 03:38:23;;;;;;;21.10;14.77;;;17.50;99.90;;;;;;5052029;28;20516;-78
2023/05/24 03:41:28;;;;;;;22.25;15.27;;;17.40;99.90;;;;;;5052159;28;20052;-77
2023/05/24 03:44:36;;;;;;;24.90;14.93;;;17.40;99.90;;;;;;5051820;28;20044;-78
2023/05/24 03:47:41;;;;;;;18.50;14.98;;;17.30;99.90;;;;;;5051993;28;20040;-78
2023/05/24 03:50:45;;;;;;;19.80;14.45;;;17.40;99.90;;;;;;5051485;28;20044;-77
2023/05/24 03:53:49;;;;;;;22.25;16.13;;;17.40;99.90;;;;;;5040431;28;20051;-77
2023/05/24 03:56:53;;;;;;;22.08;15.73;;;17.40;99.90;;;;;;5051494;28;20063;-77
2023/05/24 03:59:57;;;;;;;21.42;15.48;;;17.30;99.90;;;;;;5052003;28;20120;-78
2023/05/24 04:03:01;;;;;;;24.95;15.82;;;17.30;99.90;;;;;;5050793;28;20055;-77
2023/05/24 04:06:06;;;;;;;24.88;15.98;;;17.30;99.90;;;;;;5039049;28;20052;-77
2023/05/24 04:09:10;;;;;;;27.80;16.00;;;17.40;99.90;;;;;;5039328;28;20056;-77
2023/05/24 04:12:14;;;;;;;23.90;15.10;;;17.40;99.90;;;;;;5051318;28;20069;-77
2023/05/24 04:15:20;;;;;;;22.70;15.75;;;17.40;99.90;;;;;;5039060;28;20044;-77
2023/05/24 04:18:24;;;;;;;29.25;15.75;;;17.40;99.90;;;;;;5052288;28;20099;-77
2023/05/24 04:21:28;;;;;;;23.77;15.85;;;17.40;99.90;;;;;;5051673;28;20044;-76
2023/05/24 04:24:32;;;;;;;30.77;16.20;;;17.40;99.90;;;;;;5051964;28;20224;-77
2023/05/24 04:27:36;;;;;;;22.27;15.93;;;17.50;99.90;;;;;;5051973;28;20052;-77
2023/05/24 04:30:40;;;;;;;25.25;15.48;;;17.60;99.90;;;;;;5054577;28;20044;-77
2023/05/24 04:33:46;;;;;;;25.35;16.25;;;17.70;99.90;;;;;;5041673;28;20044;-77
2023/05/24 04:36:52;;;;;;;23.77;15.50;;;19.60;99.90;;;;;;5039190;28;20419;-77
2023/05/24 04:39:56;;;;;;;22.98;15.88;;;18.20;99.90;;;;;;5051836;28;20047;-77
2023/05/24 04:43:00;;;;;;;23.65;15.48;;;18.30;99.90;;;;;;5051185;28;20495;-77
2023/05/24 04:46:04;;;;;;;22.45;14.95;;;18.40;99.90;;;;;;5051146;28;20060;-77
2023/05/24 04:49:08;;;;;;;28.08;16.27;;;18.60;99.90;;;;;;5051348;28;20044;-77
2023/05/24 04:52:12;;;;;;;21.95;15.05;;;19.30;99.90;;;;;;5051209;28;20040;-76
2023/05/24 04:55:16;;;;;;;21.30;15.77;;;19.80;99.90;;;;;;5051383;28;20404;-77
2023/05/24 04:58:20;;;;;;;29.90;18.08;;;20.40;99.00;;;;;;5051409;28;20047;-78
2023/05/24 05:01:24;;;;;;;30.75;15.75;;;20.40;98.20;;;;;;5051322;28;20507;-78
2023/05/24 05:04:29;;;;;;;34.58;16.02;;;20.30;98.90;;;;;;5050500;28;20044;-77
2023/05/24 05:07:33;;;;;;;32.17;16.63;;;20.60;98.80;;;;;;5074360;28;20059;-77
2023/05/24 05:10:37;;;;;;;20.08;16.52;;;20.70;98.40;;;;;;5090983;28;20039;-78
2023/05/24 05:13:41;;;;;;;30.15;17.02;;;20.70;97.90;;;;;;5090921;28;20507;-71
2023/05/24 05:16:45;;;;;;;30.58;15.50;;;20.60;98.00;;;;;;5090824;28;20047;-69
2023/05/24 05:19:49;;;;;;;28.30;16.65;;;20.40;98.50;;;;;;5090606;28;20039;-68
2023/05/24 05:22:53;;;;;;;32.78;15.23;;;20.40;98.20;;;;;;5090409;28;20051;-69
2023/05/24 05:25:57;;;;;;;29.90;16.48;;;20.50;98.20;;;;;;5090654;28;20514;-68
2023/05/24 05:29:01;;;;;;;20.23;15.32;;;20.60;97.90;;;;;;5090718;28;20043;-68
2023/05/24 05:32:05;;;;;;;28.30;14.95;;;20.60;98.10;;;;;;5090769;28;20047;-68
2023/05/24 05:35:09;;;;;;;22.10;14.88;;;20.70;98.00;;;;;;5090445;28;20043;-68
2023/05/24 05:38:13;;;;;;;27.80;14.82;;;21.10;98.10;;;;;;5090629;28;20043;-68
2023/05/24 05:41:17;;;;;;;30.98;15.25;;;21.50;97.60;;;;;;5078039;28;20047;-68
2023/05/24 05:44:21;;;;;;;26.73;13.95;;;21.70;96.40;;;;;;5090598;28;20043;-69
2023/05/24 05:47:25;;;;;;;26.52;14.75;;;21.90;96.40;;;;;;5090310;28;20062;-69
2023/05/24 05:50:28;;;;;;;26.38;13.75;;;22.10;96.10;;;;;;5090415;28;20618;-69
2023/05/24 05:53:33;;;;;;;23.08;13.88;;;22.50;96.00;;;;;;5092841;28;20055;-69
2023/05/24 05:56:43;;;;;;;23.52;13.63;;;22.60;95.40;;;;;;5093990;28;20533;-69
2023/05/24 05:59:47;;;;;;;22.27;12.77;;;22.80;94.80;;;;;;5093753;28;20039;-68
2023/05/24 06:02:51;;;;;;;20.15;12.70;;;22.90;94.80;;;;;;5094079;28;20075;-68
2023/05/24 06:05:55;;;;;;;26.45;14.27;;;23.20;94.40;;;;;;5093798;28;20051;-69
2023/05/24 06:09:00;;;;;;;21.90;11.95;;;23.20;94.50;;;;;;5093441;28;20047;-69
2023/05/24 06:12:05;;;;;;;23.95;13.35;;;23.30;94.20;;;;;;5093511;28;20047;-69
2023/05/24 06:15:09;;;;;;;25.58;12.63;;;23.50;94.10;;;;;;5093464;28;20043;-68
2023/05/24 06:18:14;;;;;;;28.52;12.25;;;23.60;94.10;;;;;;5091893;28;20051;-69
2023/05/24 06:21:18;;;;;;;24.33;12.05;;;24.00;93.80;;;;;;5093293;28;20047;-69
2023/05/24 06:24:22;;;;;;;19.10;10.65;;;24.10;93.40;;;;;;5093382;28;20047;-66
2023/05/24 06:27:26;;;;;;;23.17;11.77;;;24.20;93.20;;;;;;5080914;28;20047;-66
2023/05/24 06:30:30;;;;;;;23.90;10.82;;;24.30;93.00;;;;;;5093163;28;20040;-66
2023/05/24 06:33:34;;;;;;;19.88;11.00;;;24.40;92.40;;;;;;5093323;28;20051;-66
2023/05/24 06:36:41;;;;;;;20.67;11.18;;;24.60;92.90;;;;;;5093179;28;20085;-65
2023/05/24 06:39:45;;;;;;;20.67;10.35;;;24.80;92.80;;;;;;5093306;28;20494;-66
2023/05/24 06:42:49;;;;;;;25.92;10.82;;;24.80;92.30;;;;;;5093166;28;20047;-67
2023/05/24 06:45:53;;;;;;;20.67;10.18;;;24.80;92.10;;;;;;5093113;28;20059;-67
2023/05/24 06:48:57;;;;;;;21.35;10.15;;;24.70;92.20;;;;;;5080321;28;20047;-67
2023/05/24 06:52:01;;;;;;;16.88;9.20;;;24.80;91.90;;;;;;5093249;28;20051;-67
2023/05/24 06:55:05;;;;;;;11.82;7.85;;;25.20;91.30;;;;;;5092972;28;20046;-66
2023/05/24 06:58:13;;;;;;;15.13;9.10;;;25.40;88.80;;;;;;5092783;28;20046;-66
2023/05/24 07:01:17;;;;;;;15.45;9.63;;;25.40;88.90;;;;;;5092697;28;20039;-66
2023/05/24 07:04:24;;;;;;;11.93;8.82;;;25.30;89.50;;;;;;5091879;28;20067;-65
2023/05/24 07:07:29;;;;;;;11.98;8.38;;;;;;;;;;5092249;28;20307;-65
2023/05/24 07:10:33;;;;;;;16.85;9.85;;;26.00;91.90;;;;;;5092382;28;20036;-65
2023/05/24 07:13:37;;;;;;;17.80;11.02;;;25.80;89.20;;;;;;5092603;28;20063;-66
2023/05/24 07:16:41;;;;;;;13.73;8.27;;;26.00;89.70;;;;;;5092413;28;20071;-65
2023/05/24 07:19:44;;;;;;;16.73;7.57;;;26.40;85.80;;;;;;5091559;28;20047;-65
2023/05/24 07:22:48;;;;;;;13.95;8.48;;;26.40;85.50;;;;;;5090561;28;20035;-67
2023/05/24 07:25:52;;;;;;;15.23;8.55;;;26.50;86.50;;;;;;5079856;28;20043;-67
2023/05/24 07:28:56;;;;;;;21.38;9.05;;;26.40;85.60;;;;;;5092015;28;20403;-66
2023/05/24 07:32:00;;;;;;;16.40;9.43;;;26.50;85.60;;;;;;5092021;28;20035;-66
2023/05/24 07:35:04;;;;;;;16.70;10.32;;;26.40;91.40;;;;;;5091953;28;20522;-65
2023/05/24 07:38:08;;;;;;;16.08;10.00;;;26.70;89.20;;;;;;5092233;28;20043;-65
2023/05/24 07:41:13;;;;;;;17.65;11.07;;;26.60;89.60;;;;;;5092100;28;20044;-66
2023/05/24 07:44:18;;;;;;;25.88;12.32;;;26.60;88.40;;;;;;5091708;28;20039;-66
2023/05/24 07:47:22;;;;;;;56.42;14.90;;;26.60;88.80;;;;;;5091748;28;20392;-67
2023/05/24 07:50:27;;;;;;;19.33;10.05;;;26.70;89.50;;;;;;5091981;28;20047;-66
2023/05/24 07:53:32;;;;;;;13.32;10.57;;;26.90;89.30;;;;;;5091772;28;20051;-67
2023/05/24 07:56:37;;;;;;;18.67;8.73;;;27.00;88.10;;;;;;5091956;28;20047;-67
2023/05/24 07:59:41;;;;;;;16.67;9.52;;;27.10;88.40;;;;;;5079445;28;20047;-67
2023/05/24 08:02:47;;;;;;;12.73;8.73;;;27.30;88.20;;;;;;5091400;28;20047;-66
2023/05/24 08:05:51;;;;;;;12.10;8.52;;;27.30;86.70;;;;;;5091162;28;20059;-67
2023/05/24 08:08:55;;;;;;;12.23;7.22;;;27.40;85.00;;;;;;5091546;28;20047;-65
2023/05/24 08:12:04;;;;;;;15.43;7.05;;;27.40;84.40;;;;;;5091251;28;20050;-67
2023/05/24 08:15:09;;;;;;;9.85;6.78;;;27.40;83.10;;;;;;5091211;28;20055;-67
2023/05/24 08:18:13;;;;;;;11.05;7.30;;;27.30;84.10;;;;;;5091383;28;20055;-66
2023/05/24 08:21:17;;;;;;;13.55;8.05;;;27.40;84.10;;;;;;5091664;28;20463;-67
2023/05/24 08:24:21;;;;;;;14.68;9.10;;;27.50;82.70;;;;;;5091279;28;20047;-67
2023/05/24 08:27:27;;;;;;;11.77;7.60;;;27.50;82.10;;;;;;5091003;28;20062;-67
2023/05/24 08:30:32;;;;;;;16.50;8.50;;;27.30;81.80;;;;;;5091265;28;20047;-67
2023/05/24 08:33:35;;;;;;;19.60;9.43;;;27.30;82.70;;;;;;5091473;28;20054;-67
2023/05/24 08:36:41;;;;;;;12.18;7.70;;;27.30;84.20;;;;;;5091210;28;20042;-67
2023/05/24 08:39:44;;;;;;;11.43;7.22;;;27.20;84.60;;;;;;5091076;28;20043;-66
2023/05/24 08:42:49;;;;;;;14.05;7.65;;;27.20;83.20;;;;;;5078477;28;20035;-67
2023/05/24 08:45:57;;;;;;;17.60;8.15;;;27.40;83.80;;;;;;5090830;28;20360;-66
2023/05/24 08:49:02;;;;;;;15.05;8.45;;;27.20;84.10;;;;;;5091006;28;20066;-66
2023/05/24 08:52:07;;;;;;;15.05;7.78;;;27.20;83.60;;;;;;5091065;28;20039;-67
2023/05/24 08:55:13;;;;;;;14.75;7.97;;;27.20;83.00;;;;;;5091023;28;20055;-67
2023/05/24 08:58:18;;;;;;;16.08;9.07;;;27.20;82.40;;;;;;5090842;28;20043;-67
2023/05/24 09:01:23;;;;;;;12.95;7.20;;;27.10;83.90;;;;;;5090891;28;20055;-67
2023/05/24 09:04:28;;;;;;;10.40;6.32;;;27.10;84.30;;;;;;5090849;28;20047;-66
2023/05/24 09:07:32;;;;;;;13.57;7.40;;;27.30;85.00;;;;;;5090316;28;20055;-67
2023/05/24 09:10:36;;;;;;;12.30;8.20;;;27.50;84.50;;;;;;5090876;28;20039;-67
2023/05/24 09:13:41;;;;;;;20.83;10.20;;;27.50;83.50;;;;;;5090637;28;20054;-66
2023/05/24 09:16:45;;;;;;;14.68;8.10;;;27.40;82.80;;;;;;5090859;28;20048;-67
2023/05/24 09:19:51;;;;;;;10.23;7.35;;;27.40;83.20;;;;;;5090809;28;20123;-67
2023/05/24 09:22:56;;;;;;;13.18;6.85;;;27.50;83.40;;;;;;5090737;28;20154;-66
2023/05/24 09:26:09;;;;;;;16.50;8.27;;;27.60;82.00;;;;;;5090608;28;20059;-66
2023/05/24 09:29:14;;;;;;;16.27;8.50;;;27.70;82.60;;;;;;5094440;28;20059;-67
2023/05/24 09:32:20;;;;;;;15.05;7.55;;;27.70;82.20;;;;;;5094405;28;20043;-66
2023/05/24 09:35:28;;;;;;;9.98;6.40;;;27.70;82.60;;;;;;5094292;28;20047;-66
2023/05/24 09:38:32;;;;;;;13.68;6.68;;;27.80;82.50;;;;;;5094184;28;20046;-66
2023/05/24 09:41:36;;;;;;;11.00;6.55;;;27.80;81.00;;;;;;5094410;28;20047;-66
2023/05/24 09:44:41;;;;;;;17.60;7.60;;;27.90;80.30;;;;;;5094390;28;20072;-66
2023/05/24 09:47:44;;;;;;;12.10;6.25;;;27.90;79.10;;;;;;5093914;28;20047;-67
2023/05/24 09:51:05;;;;;;;8.07;6.13;;;27.90;79.70;;;;;;5093961;28;20495;-66
2023/05/24 09:54:08;;;;;;;13.27;6.33;;;28.00;80.10;;;;;;5093855;28;20395;-65
2023/05/24 09:57:16;;;;;;;9.02;6.43;;;28.10;79.60;;;;;;5094099;28;20285;-66
2023/05/24 10:00:22;;;;;;;13.50;6.18;;;28.20;77.90;;;;;;5093749;28;20063;-66
2023/05/24 10:03:26;;;;;;;11.85;5.75;;;28.20;77.90;;;;;;5093744;28;20063;-66
2023/05/24 10:06:33;;;;;;;15.43;6.68;;;28.20;77.90;;;;;;5093317;28;20063;-66
2023/05/24 10:09:38;;;;;;;10.82;6.32;;;28.30;77.30;;;;;;5093980;28;20039;-66
2023/05/24 10:12:45;;;;;;;13.02;6.35;;;28.30;75.70;;;;;;5094052;28;20051;-65
2023/05/24 10:15:49;;;;;;;8.25;6.30;;;28.30;76.20;;;;;;5093567;28;20043;-65
2023/05/24 10:18:53;;;;;;;7.82;5.60;;;28.30;76.80;;;;;;5093723;28;20062;-65
2023/05/24 10:21:58;;;;;;;10.98;5.75;;;28.40;77.10;;;;;;5093655;28;20043;-66
2023/05/24 10:25:05;;;;;;;8.23;5.75;;;28.50;77.10;;;;;;5093507;28;20043;-65
2023/05/24 10:28:12;;;;;;;8.95;5.53;;;28.40;76.40;;;;;;5093155;28;20047;-66
2023/05/24 10:31:30;;;;;;;7.35;4.90;;;28.40;75.80;;;;;;5093350;28;20039;-66
2023/05/24 10:34:35;;;;;;;8.05;4.70;;;28.50;74.20;;;;;;5093461;28;20047;-67
2023/05/24 10:37:41;;;;;;;9.88;5.93;;;28.50;74.40;;;;;;5093357;28;20047;-66
2023/05/24 10:41:35;;;;;;;13.38;6.97;;;28.40;74.20;;;;;;5093286;28;20047;-66
2023/05/24 10:44:51;;;;;;;17.60;7.20;;;28.30;75.10;;;;;;5093123;28;20046;-65
2023/05/24 10:47:55;;;;;;;13.35;6.88;;;28.20;76.20;;;;;;5092560;28;20062;-66
2023/05/24 10:51:40;;;;;;;12.88;7.40;;;28.20;77.20;;;;;;5093048;28;20035;-65
2023/05/24 10:55:09;;;;;;;20.63;11.15;;;28.20;77.40;;;;;;5092781;28;20055;-66
2023/05/24 10:58:13;;;;;;;12.95;9.20;;;28.20;82.20;;;;;;5093031;28;20043;-65
2023/05/24 11:01:27;;;;;;;23.67;12.60;;;28.20;82.70;;;;;;5093248;28;20055;-66
2023/05/24 11:04:35;;;;;;;18.60;12.52;;;28.30;83.10;;;;;;5092498;28;20043;-65
2023/05/24 11:07:43;;;;;;;19.80;11.45;;;28.20;82.10;;;;;;5092268;28;20071;-65
2023/05/24 11:10:47;;;;;;;26.35;13.88;;;28.20;81.80;;;;;;5092798;28;20051;-66
2023/05/24 11:13:57;;;;;;;18.27;11.35;;;28.10;81.80;;;;;;5092803;28;20051;-66
2023/05/24 11:17:02;;;;;;;26.42;11.40;;;28.10;82.80;;;;;;5092446;28;20071;-66
2023/05/24 11:20:07;;;;;;;18.38;11.65;;;28.10;82.80;;;;;;5092323;28;20047;-65
2023/05/24 11:23:14;;;;;;;16.75;9.48;;;28.10;80.30;;;;;;5092267;28;20400;-66
2023/05/24 11:26:18;;;;;;;15.40;9.52;;;28.10;81.60;;;;;;5092211;28;20047;-66
2023/05/24 11:29:23;;;;;;;11.18;7.90;;;28.10;80.80;;;;;;5092123;28;20043;-65
2023/05/24 11:32:27;;;;;;;15.15;10.05;;;28.10;80.60;;;;;;5092089;28;20039;-66
2023/05/24 11:35:31;;;;;;;13.43;8.07;;;28.10;80.30;;;;;;5092108;28;20396;-65
2023/05/24 11:38:36;;;;;;;15.38;9.07;;;28.20;79.70;;;;;;5092001;28;20047;-66
2023/05/24 11:41:40;;;;;;;17.45;8.27;;;28.20;80.30;;;;;;5092120;28;20502;-66
2023/05/24 11:44:48;;;;;;;13.43;7.65;;;28.20;81.20;;;;;;5092081;28;20050;-66
2023/05/24 11:47:55;;;;;;;13.45;8.02;;;28.20;79.60;;;;;;5091579;28;20059;-66
2023/05/24 11:50:59;;;;;;;20.52;10.02;;;28.20;78.90;;;;;;5091510;28;20669;-66
2023/05/24 11:54:03;;;;;;;8.88;6.85;;;28.30;78.70;;;;;;5091581;28;20605;-66
2023/05/24 11:57:11;;;;;;;15.05;8.80;;;28.20;78.80;;;;;;5091397;28;20035;-66
2023/05/24 12:00:25;;;;;;;17.17;11.05;;;28.30;80.30;;;;;;5091696;28;20054;-66
2023/05/24 12:03:31;;;;;;;16.65;10.68;;;28.20;80.60;;;;;;5091339;28;20046;-67
2023/05/24 12:06:38;;;;;;;15.77;10.30;;;28.20;81.10;;;;;;5089171;28;20506;-66
2023/05/24 12:09:43;;;;;;;23.77;10.65;;;28.20;81.20;;;;;;5089518;28;20047;-66
2023/05/24 12:12:47;;;;;;;19.58;10.30;;;28.20;81.30;;;;;;5090545;28;20043;-66
2023/05/24 12:15:54;;;;;;;21.17;9.25;;;28.20;80.70;;;;;;5091179;28;20118;-67
2023/05/24 12:19:00;;;;;;;13.63;8.73;;;28.10;80.40;;;;;;5091124;28;20047;-66
2023/05/24 12:22:05;;;;;;;12.48;8.82;;;28.10;80.60;;;;;;5091255;28;20039;-66
2023/05/24 12:25:14;;;;;;;14.32;8.98;;;28.10;80.70;;;;;;5091538;28;20059;-66
2023/05/24 12:28:23;;;;;;;18.88;11.07;;;28.00;81.40;;;;;;5091065;28;20059;-68
2023/05/24 12:31:27;;;;;;;12.27;8.80;;;28.00;82.10;;;;;;5091043;28;20080;-67
2023/05/24 12:34:32;;;;;;;21.67;11.23;;;28.00;81.60;;;;;;5078758;28;20039;-66
2023/05/24 12:37:36;;;;;;;19.60;11.02;;;28.00;80.40;;;;;;5091041;28;20416;-66
2023/05/24 12:40:42;;;;;;;12.10;9.05;;;27.90;81.10;;;;;;5091105;28;20039;-66
2023/05/24 12:43:46;;;;;;;13.35;8.73;;;27.90;81.70;;;;;;5091174;28;20043;-66
2023/05/24 12:46:52;;;;;;;13.32;7.95;;;27.90;82.80;;;;;;5090698;28;20055;-67
2023/05/24 12:49:57;;;;;;;15.65;9.55;;;27.90;82.90;;;;;;5090154;28;20043;-67
2023/05/24 12:53:01;;;;;;;11.93;8.40;;;27.90;81.00;;;;;;5090911;28;20113;-68
2023/05/24 12:56:05;;;;;;;17.70;8.65;;;27.80;81.30;;;;;;5090770;28;20047;-68
2023/05/24 12:59:09;;;;;;;14.77;8.95;;;27.80;81.10;;;;;;5091001;28;20051;-68
2023/05/24 13:02:13;;;;;;;13.15;8.50;;;27.80;80.30;;;;;;5090602;28;20058;-67
2023/05/24 13:05:17;;;;;;;14.43;7.38;;;27.70;80.40;;;;;;5095637;28;20043;-68
2023/05/24 13:08:22;;;;;;;9.77;7.00;;;27.70;81.00;;;;;;5082473;28;20502;-67
2023/05/24 13:11:26;;;;;;;7.63;6.63;;;27.70;81.20;;;;;;5095457;28;20042;-66
2023/05/24 13:14:30;;;;;;;12.70;6.70;;;27.70;80.30;;;;;;5082346;28;20046;-66
2023/05/24 13:17:36;;;;;;;13.98;7.63;;;27.70;79.90;;;;;;5095061;28;20379;-65
2023/05/24 13:20:40;;;;;;;12.20;7.35;;;27.80;79.00;;;;;;5082620;28;20059;-65
2023/05/24 13:23:44;;;;;;;14.90;7.03;;;27.70;78.10;;;;;;5094780;28;20051;-66
2023/05/24 13:26:48;;;;;;;8.32;6.35;;;27.70;78.00;;;;;;5094440;28;20051;-66
2023/05/24 13:29:52;;;;;;;7.57;5.90;;;27.70;78.60;;;;;;5094538;28;20061;-66
2023/05/24 13:32:58;;;;;;;8.65;5.75;;;27.70;78.80;;;;;;5094268;28;20043;-66
2023/05/24 13:36:02;;;;;;;9.75;5.60;;;27.80;78.40;;;;;;5094388;28;20042;-66
2023/05/24 13:39:08;;;;;;;10.40;6.07;;;27.80;79.10;;;;;;5094374;28;20498;-66
2023/05/24 13:42:13;;;;;;;8.43;5.50;;;27.80;78.20;;;;;;5094507;28;20507;-66
2023/05/24 13:45:17;;;;;;;11.00;6.22;;;27.90;78.10;;;;;;5094148;28;20040;-66
2023/05/24 13:48:21;;;;;;;11.07;5.68;;;27.90;77.50;;;;;;5093954;28;20074;-66
2023/05/24 13:51:26;;;;;;;8.57;5.75;;;27.80;77.10;;;;;;5094362;28;20058;-65
2023/05/24 13:54:30;;;;;;;11.98;6.43;;;27.80;76.80;;;;;;5094266;28;20046;-66
2023/05/24 13:57:35;;;;;;;8.63;4.65;;;27.70;76.20;;;;;;5094108;28;20031;-66
2023/05/24 14:00:38;;;;;;;8.98;5.18;;;27.70;76.20;;;;;;5094194;28;20043;-66
2023/05/24 14:03:42;;;;;;;14.68;5.30;;;27.50;76.20;;;;;;5081271;28;20047;-66
2023/05/24 14:06:46;;;;;;;10.30;5.45;;;27.50;76.20;;;;;;5080893;28;20055;-66
2023/05/24 14:09:51;;;;;;;11.45;5.15;;;27.50;76.50;;;;;;5093796;28;20297;-66
2023/05/24 14:12:54;;;;;;;8.10;5.05;;;27.40;77.30;;;;;;5093391;28;20043;-66
2023/05/24 14:15:58;;;;;;;11.65;6.10;;;27.40;78.40;;;;;;5093697;28;20456;-66
2023/05/24 14:19:02;;;;;;;9.82;5.68;;;27.40;77.80;;;;;;5093030;28;20055;-66
2023/05/24 14:22:06;;;;;;;9.63;5.47;;;27.40;77.80;;;;;;5093372;28;20523;-66
2023/05/24 14:25:10;;;;;;;11.48;4.97;;;27.40;78.40;;;;;;5093187;28;20043;-66
2023/05/24 14:28:14;;;;;;;7.20;4.50;;;27.40;78.10;;;;;;5080272;28;20424;-66
2023/05/24 14:31:18;;;;;;;8.63;5.60;;;27.40;78.10;;;;;;5093366;28;20039;-66
2023/05/24 14:34:22;;;;;;;9.52;4.43;;;27.40;76.60;;;;;;5093155;28;20051;-65
2023/05/24 14:37:26;;;;;;;16.63;6.72;;;27.30;76.40;;;;;;5092898;28;20043;-65
2023/05/24 14:40:32;;;;;;;10.27;5.75;;;27.30;77.10;;;;;;5093265;28;20055;-66
2023/05/24 14:43:36;;;;;;;10.93;5.22;;;27.20;77.40;;;;;;5093261;28;20047;-65
2023/05/24 14:46:40;;;;;;;13.80;6.70;;;27.20;76.40;;;;;;5092979;28;20047;-66
2023/05/24 14:49:44;;;;;;;7.57;4.97;;;27.20;76.00;;;;;;5092989;28;20059;-65
2023/05/24 14:52:48;;;;;;;9.65;5.30;;;27.20;76.80;;;;;;5093153;28;20043;-65
2023/05/24 14:55:53;;;;;;;15.02;6.28;;;27.10;77.30;;;;;;5092826;28;20043;-66
2023/05/24 14:58:57;;;;;;;11.25;5.82;;;27.10;76.80;;;;;;5092983;28;20063;-66
2023/05/24 15:02:01;;;;;;;12.02;5.47;;;27.10;76.50;;;;;;5093071;28;20047;-64
2023/05/24 15:05:06;;;;;;;15.80;5.47;;;27.00;76.80;;;;;;5092788;28;20051;-65
2023/05/24 15:08:11;;;;;;;8.15;5.00;;;27.00;76.50;;;;;;5092168;28;20083;-64
2023/05/24 15:11:16;;;;;;;9.73;6.03;;;27.00;76.90;;;;;;5080179;28;20047;-65
2023/05/24 15:14:20;;;;;;;48.58;9.45;;;27.00;76.20;;;;;;5091343;28;20649;-66
2023/05/24 15:17:25;;;;;;;18.77;6.63;;;27.00;76.70;;;;;;5092009;28;20047;-65
2023/05/24 15:20:29;;;;;;;10.48;5.45;;;27.00;76.10;;;;;;5092526;28;20047;-66
2023/05/24 15:23:33;;;;;;;15.65;6.22;;;26.90;76.90;;;;;;5091513;28;20067;-67
2023/05/24 15:26:37;;;;;;;11.90;5.55;;;26.90;76.50;;;;;;5091206;28;20406;-66
2023/05/24 15:29:41;;;;;;;13.43;5.45;;;26.80;76.70;;;;;;5092432;28;20463;-66
2023/05/24 15:32:45;;;;;;;18.35;6.32;;;26.70;76.70;;;;;;5092152;28;20051;-66
2023/05/24 15:35:49;;;;;;;11.80;5.82;;;26.60;76.80;;;;;;5090739;28;20054;-65
2023/05/24 15:38:53;;;;;;;16.95;6.75;;;26.60;77.20;;;;;;5091463;28;20240;-65
2023/05/24 15:41:57;;;;;;;19.75;6.32;;;26.50;77.40;;;;;;5091479;28;20043;-66
2023/05/24 15:45:02;;;;;;;11.05;5.53;;;26.40;78.00;;;;;;5091805;28;20102;-65
2023/05/24 15:48:06;;;;;;;13.15;6.15;;;26.40;78.60;;;;;;5091766;28;20067;-65